sensor_id;sensor_type;location;lat;lon;timestamp;P1;durP1;ratioP1;P2;durP2;ratioP2
24451;SDS011;13350;50.984;5.822;2022-11-04T00:01:55;9.45;;;1.80;;
24451;SDS011;13350;50.984;5.822;2022-11-04T00:04:25;2.47;;;1.42;;
24451;SDS011;13350;50.984;5.822;2022-11-04T00:06:53;1.48;;;1.30;;
24451;SDS011;13350;50.984;5.822;2022-11-04T00:09:22;2.35;;;1.50;;
24451;SDS011;13350;50.984;5.822;2022-11-04T00:11:51;3.25;;;1.40;;
24451;SDS011;13350;50.984;5.822;2022-11-04T00:14:35;2.13;;;1.50;;
24451;SDS011;13350;50.984;5.822;2022-11-04T00:17:02;1.98;;;1.27;;
24451;SDS011;13350;50.984;5.822;2022-11-04T00:19:47;1.40;;;1.30;;
24451;SDS011;13350;50.984;5.822;2022-11-04T00:22:32;3.85;;;1.70;;
24451;SDS011;13350;50.984;5.822;2022-11-04T00:25:23;3.00;;;1.58;;
24451;SDS011;13350;50.984;5.822;2022-11-04T00:28:09;2.17;;;1.60;;
24451;SDS011;13350;50.984;5.822;2022-11-04T00:30:55;2.13;;;1.77;;
24451;SDS011;13350;50.984;5.822;2022-11-04T00:33:43;3.38;;;1.73;;
24451;SDS011;13350;50.984;5.822;2022-11-04T00:36:11;3.33;;;1.63;;
24451;SDS011;13350;50.984;5.822;2022-11-04T00:38:38;2.65;;;1.52;;
24451;SDS011;13350;50.984;5.822;2022-11-04T00:41:06;2.75;;;1.90;;
24451;SDS011;13350;50.984;5.822;2022-11-04T00:43:50;3.67;;;1.90;;
24451;SDS011;13350;50.984;5.822;2022-11-04T00:46:17;1.45;;;1.35;;
24451;SDS011;13350;50.984;5.822;2022-11-04T00:48:44;3.63;;;1.65;;
24451;SDS011;13350;50.984;5.822;2022-11-04T00:51:13;2.38;;;1.45;;
24451;SDS011;13350;50.984;5.822;2022-11-04T00:53:40;2.22;;;1.20;;
24451;SDS011;13350;50.984;5.822;2022-11-04T00:56:07;2.13;;;1.38;;
24451;SDS011;13350;50.984;5.822;2022-11-04T00:58:34;4.50;;;1.67;;
24451;SDS011;13350;50.984;5.822;2022-11-04T01:01:05;4.15;;;1.30;;
24451;SDS011;13350;50.984;5.822;2022-11-04T01:03:33;2.60;;;1.38;;
24451;SDS011;13350;50.984;5.822;2022-11-04T01:06:00;2.72;;;1.20;;
24451;SDS011;13350;50.984;5.822;2022-11-04T01:08:29;3.13;;;1.20;;
24451;SDS011;13350;50.984;5.822;2022-11-04T01:10:59;2.45;;;1.40;;
24451;SDS011;13350;50.984;5.822;2022-11-04T01:13:27;2.25;;;0.80;;
24451;SDS011;13350;50.984;5.822;2022-11-04T01:15:56;3.47;;;1.60;;
24451;SDS011;13350;50.984;5.822;2022-11-04T01:18:23;3.00;;;1.30;;
24451;SDS011;13350;50.984;5.822;2022-11-04T01:20:50;5.65;;;1.00;;
24451;SDS011;13350;50.984;5.822;2022-11-04T01:23:18;2.60;;;1.20;;
24451;SDS011;13350;50.984;5.822;2022-11-04T01:25:46;4.88;;;1.13;;
24451;SDS011;13350;50.984;5.822;2022-11-04T01:28:13;3.58;;;1.20;;
24451;SDS011;13350;50.984;5.822;2022-11-04T01:30:41;3.92;;;1.23;;
24451;SDS011;13350;50.984;5.822;2022-11-04T01:33:08;5.45;;;1.35;;
24451;SDS011;13350;50.984;5.822;2022-11-04T01:35:35;4.13;;;1.45;;
24451;SDS011;13350;50.984;5.822;2022-11-04T01:38:02;3.33;;;1.00;;
24451;SDS011;13350;50.984;5.822;2022-11-04T01:40:29;5.30;;;1.20;;
24451;SDS011;13350;50.984;5.822;2022-11-04T01:43:04;3.95;;;1.00;;
24451;SDS011;13350;50.984;5.822;2022-11-04T01:45:37;8.50;;;1.30;;
24451;SDS011;13350;50.984;5.822;2022-11-04T01:48:06;4.47;;;1.33;;
24451;SDS011;13350;50.984;5.822;2022-11-04T01:50:40;7.10;;;1.08;;
24451;SDS011;13350;50.984;5.822;2022-11-04T01:53:08;5.20;;;1.40;;
24451;SDS011;13350;50.984;5.822;2022-11-04T01:55:38;8.23;;;1.65;;
24451;SDS011;13350;50.984;5.822;2022-11-04T01:58:12;2.05;;;0.90;;
24451;SDS011;13350;50.984;5.822;2022-11-04T02:00:42;5.50;;;1.35;;
24451;SDS011;13350;50.984;5.822;2022-11-04T02:03:10;5.60;;;1.60;;
24451;SDS011;13350;50.984;5.822;2022-11-04T02:05:40;8.45;;;1.80;;
24451;SDS011;13350;50.984;5.822;2022-11-04T02:08:08;5.20;;;1.70;;
24451;SDS011;13350;50.984;5.822;2022-11-04T02:10:36;3.28;;;1.73;;
24451;SDS011;13350;50.984;5.822;2022-11-04T02:13:07;4.00;;;2.15;;
24451;SDS011;13350;50.984;5.822;2022-11-04T02:15:36;8.23;;;2.30;;
24451;SDS011;13350;50.984;5.822;2022-11-04T02:20:51;5.15;;;1.38;;
24451;SDS011;13350;50.984;5.822;2022-11-04T02:26:51;2.72;;;1.30;;
24451;SDS011;13350;50.984;5.822;2022-11-04T02:29:56;3.83;;;1.35;;
24451;SDS011;13350;50.984;5.822;2022-11-04T02:32:40;3.65;;;1.30;;
24451;SDS011;13350;50.984;5.822;2022-11-04T02:35:18;3.35;;;1.23;;
24451;SDS011;13350;50.984;5.822;2022-11-04T02:37:52;5.43;;;1.40;;
24451;SDS011;13350;50.984;5.822;2022-11-04T02:40:26;3.45;;;1.35;;
24451;SDS011;13350;50.984;5.822;2022-11-04T02:43:00;6.97;;;1.45;;
24451;SDS011;13350;50.984;5.822;2022-11-04T02:45:36;8.83;;;1.80;;
24451;SDS011;13350;50.984;5.822;2022-11-04T02:48:07;3.67;;;1.40;;
24451;SDS011;13350;50.984;5.822;2022-11-04T02:50:39;1.55;;;0.90;;
24451;SDS011;13350;50.984;5.822;2022-11-04T02:53:11;3.17;;;1.33;;
24451;SDS011;13350;50.984;5.822;2022-11-04T02:55:44;5.90;;;1.20;;
24451;SDS011;13350;50.984;5.822;2022-11-04T02:58:15;3.58;;;1.42;;
24451;SDS011;13350;50.984;5.822;2022-11-04T03:00:48;3.13;;;1.42;;
24451;SDS011;13350;50.984;5.822;2022-11-04T03:03:18;5.57;;;1.45;;
24451;SDS011;13350;50.984;5.822;2022-11-04T03:05:51;7.70;;;1.60;;
24451;SDS011;13350;50.984;5.822;2022-11-04T03:08:21;5.40;;;1.75;;
24451;SDS011;13350;50.984;5.822;2022-11-04T03:10:55;3.28;;;1.30;;
24451;SDS011;13350;50.984;5.822;2022-11-04T03:13:30;2.42;;;1.00;;
24451;SDS011;13350;50.984;5.822;2022-11-04T03:16:03;2.47;;;0.85;;
24451;SDS011;13350;50.984;5.822;2022-11-04T03:18:35;2.67;;;1.17;;
24451;SDS011;13350;50.984;5.822;2022-11-04T03:21:09;7.53;;;1.83;;
24451;SDS011;13350;50.984;5.822;2022-11-04T03:23:38;6.03;;;1.33;;
24451;SDS011;13350;50.984;5.822;2022-11-04T03:26:08;3.45;;;1.25;;
24451;SDS011;13350;50.984;5.822;2022-11-04T03:28:41;6.68;;;1.58;;
24451;SDS011;13350;50.984;5.822;2022-11-04T03:31:16;4.03;;;1.45;;
24451;SDS011;13350;50.984;5.822;2022-11-04T03:33:49;4.88;;;1.70;;
24451;SDS011;13350;50.984;5.822;2022-11-04T03:36:17;6.72;;;1.23;;
24451;SDS011;13350;50.984;5.822;2022-11-04T03:38:47;6.93;;;1.25;;
24451;SDS011;13350;50.984;5.822;2022-11-04T03:41:16;3.35;;;1.20;;
24451;SDS011;13350;50.984;5.822;2022-11-04T03:43:48;4.53;;;1.40;;
24451;SDS011;13350;50.984;5.822;2022-11-04T03:46:17;6.68;;;1.52;;
24451;SDS011;13350;50.984;5.822;2022-11-04T03:48:46;4.65;;;1.17;;
24451;SDS011;13350;50.984;5.822;2022-11-04T03:51:14;5.75;;;1.90;;
24451;SDS011;13350;50.984;5.822;2022-11-04T03:53:41;8.05;;;1.30;;
24451;SDS011;13350;50.984;5.822;2022-11-04T03:56:15;3.75;;;1.67;;
24451;SDS011;13350;50.984;5.822;2022-11-04T03:58:57;4.20;;;1.33;;
24451;SDS011;13350;50.984;5.822;2022-11-04T04:01:37;4.95;;;1.33;;
24451;SDS011;13350;50.984;5.822;2022-11-04T04:04:13;7.28;;;1.40;;
24451;SDS011;13350;50.984;5.822;2022-11-04T04:06:44;5.68;;;1.30;;
24451;SDS011;13350;50.984;5.822;2022-11-04T04:09:15;5.07;;;1.48;;
24451;SDS011;13350;50.984;5.822;2022-11-04T04:11:49;5.57;;;1.20;;
24451;SDS011;13350;50.984;5.822;2022-11-04T04:14:22;10.27;;;1.70;;
24451;SDS011;13350;50.984;5.822;2022-11-04T04:19:38;5.43;;;1.52;;
24451;SDS011;13350;50.984;5.822;2022-11-04T04:22:11;7.68;;;1.75;;
24451;SDS011;13350;50.984;5.822;2022-11-04T04:24:44;4.90;;;1.23;;
24451;SDS011;13350;50.984;5.822;2022-11-04T04:27:32;6.45;;;1.50;;
24451;SDS011;13350;50.984;5.822;2022-11-04T04:30:02;6.07;;;1.55;;
24451;SDS011;13350;50.984;5.822;2022-11-04T04:32:33;5.57;;;1.40;;
24451;SDS011;13350;50.984;5.822;2022-11-04T04:35:04;6.07;;;1.25;;
24451;SDS011;13350;50.984;5.822;2022-11-04T04:37:50;4.20;;;1.50;;
24451;SDS011;13350;50.984;5.822;2022-11-04T04:40:20;5.07;;;1.48;;
24451;SDS011;13350;50.984;5.822;2022-11-04T04:43:10;6.80;;;2.22;;
24451;SDS011;13350;50.984;5.822;2022-11-04T04:45:58;6.22;;;1.33;;
24451;SDS011;13350;50.984;5.822;2022-11-04T04:48:28;5.63;;;1.58;;
24451;SDS011;13350;50.984;5.822;2022-11-04T04:50:55;5.13;;;1.75;;
24451;SDS011;13350;50.984;5.822;2022-11-04T04:53:26;4.43;;;1.33;;
24451;SDS011;13350;50.984;5.822;2022-11-04T04:55:54;6.13;;;1.63;;
24451;SDS011;13350;50.984;5.822;2022-11-04T04:58:21;5.53;;;1.73;;
24451;SDS011;13350;50.984;5.822;2022-11-04T05:00:48;5.40;;;1.60;;
24451;SDS011;13350;50.984;5.822;2022-11-04T05:03:15;4.75;;;1.50;;
24451;SDS011;13350;50.984;5.822;2022-11-04T05:05:44;4.40;;;1.38;;
24451;SDS011;13350;50.984;5.822;2022-11-04T05:08:11;4.28;;;1.30;;
24451;SDS011;13350;50.984;5.822;2022-11-04T05:10:38;6.00;;;1.50;;
24451;SDS011;13350;50.984;5.822;2022-11-04T05:13:05;4.68;;;1.50;;
24451;SDS011;13350;50.984;5.822;2022-11-04T05:15:51;5.00;;;1.48;;
24451;SDS011;13350;50.984;5.822;2022-11-04T05:18:18;2.53;;;1.38;;
24451;SDS011;13350;50.984;5.822;2022-11-04T05:20:47;5.65;;;1.55;;
24451;SDS011;13350;50.984;5.822;2022-11-04T05:23:14;3.53;;;1.38;;
24451;SDS011;13350;50.984;5.822;2022-11-04T05:25:41;5.07;;;1.50;;
24451;SDS011;13350;50.984;5.822;2022-11-04T05:28:09;6.97;;;1.52;;
24451;SDS011;13350;50.984;5.822;2022-11-04T05:30:36;5.45;;;1.50;;
24451;SDS011;13350;50.984;5.822;2022-11-04T05:33:03;5.03;;;1.60;;
24451;SDS011;13350;50.984;5.822;2022-11-04T05:35:31;6.32;;;1.63;;
24451;SDS011;13350;50.984;5.822;2022-11-04T05:38:00;3.60;;;1.50;;
24451;SDS011;13350;50.984;5.822;2022-11-04T05:40:27;2.85;;;1.30;;
24451;SDS011;13350;50.984;5.822;2022-11-04T05:42:56;5.68;;;1.20;;
24451;SDS011;13350;50.984;5.822;2022-11-04T05:45:23;6.00;;;1.50;;
24451;SDS011;13350;50.984;5.822;2022-11-04T05:47:56;3.03;;;1.35;;
24451;SDS011;13350;50.984;5.822;2022-11-04T05:50:24;4.25;;;1.05;;
24451;SDS011;13350;50.984;5.822;2022-11-04T05:52:51;4.05;;;1.50;;
24451;SDS011;13350;50.984;5.822;2022-11-04T05:55:19;6.00;;;1.05;;
24451;SDS011;13350;50.984;5.822;2022-11-04T05:57:47;4.30;;;1.05;;
24451;SDS011;13350;50.984;5.822;2022-11-04T06:00:14;6.28;;;1.20;;
24451;SDS011;13350;50.984;5.822;2022-11-04T06:02:41;6.95;;;1.30;;
24451;SDS011;13350;50.984;5.822;2022-11-04T06:05:09;6.57;;;1.42;;
24451;SDS011;13350;50.984;5.822;2022-11-04T06:07:36;4.68;;;1.23;;
24451;SDS011;13350;50.984;5.822;2022-11-04T06:10:03;5.97;;;1.30;;
24451;SDS011;13350;50.984;5.822;2022-11-04T06:12:32;4.80;;;1.52;;
24451;SDS011;13350;50.984;5.822;2022-11-04T06:14:59;6.43;;;1.50;;
24451;SDS011;13350;50.984;5.822;2022-11-04T06:17:26;7.70;;;1.10;;
24451;SDS011;13350;50.984;5.822;2022-11-04T06:19:53;3.70;;;1.15;;
24451;SDS011;13350;50.984;5.822;2022-11-04T06:22:21;4.07;;;1.15;;
24451;SDS011;13350;50.984;5.822;2022-11-04T06:24:48;4.43;;;1.15;;
24451;SDS011;13350;50.984;5.822;2022-11-04T06:27:15;5.47;;;1.50;;
24451;SDS011;13350;50.984;5.822;2022-11-04T06:29:47;3.65;;;1.25;;
24451;SDS011;13350;50.984;5.822;2022-11-04T06:32:15;4.05;;;1.17;;
24451;SDS011;13350;50.984;5.822;2022-11-04T06:34:43;4.88;;;1.63;;
24451;SDS011;13350;50.984;5.822;2022-11-04T06:37:11;4.60;;;1.25;;
24451;SDS011;13350;50.984;5.822;2022-11-04T06:39:38;5.07;;;1.40;;
24451;SDS011;13350;50.984;5.822;2022-11-04T06:42:05;3.90;;;1.30;;
24451;SDS011;13350;50.984;5.822;2022-11-04T06:44:32;5.80;;;1.65;;
24451;SDS011;13350;50.984;5.822;2022-11-04T06:47:02;4.80;;;1.58;;
24451;SDS011;13350;50.984;5.822;2022-11-04T06:49:29;3.33;;;1.20;;
24451;SDS011;13350;50.984;5.822;2022-11-04T06:51:57;4.13;;;1.02;;
24451;SDS011;13350;50.984;5.822;2022-11-04T06:54:25;3.45;;;1.27;;
24451;SDS011;13350;50.984;5.822;2022-11-04T06:56:52;6.72;;;1.42;;
24451;SDS011;13350;50.984;5.822;2022-11-04T06:59:19;4.50;;;1.30;;
24451;SDS011;13350;50.984;5.822;2022-11-04T07:01:48;3.50;;;1.23;;
24451;SDS011;13350;50.984;5.822;2022-11-04T07:04:17;4.93;;;1.30;;
24451;SDS011;13350;50.984;5.822;2022-11-04T07:06:44;5.25;;;1.38;;
24451;SDS011;13350;50.984;5.822;2022-11-04T07:09:12;4.63;;;1.63;;
24451;SDS011;13350;50.984;5.822;2022-11-04T07:11:41;4.18;;;1.13;;
24451;SDS011;13350;50.984;5.822;2022-11-04T07:14:09;4.75;;;1.20;;
24451;SDS011;13350;50.984;5.822;2022-11-04T07:16:36;4.25;;;1.30;;
24451;SDS011;13350;50.984;5.822;2022-11-04T07:19:04;5.30;;;1.23;;
24451;SDS011;13350;50.984;5.822;2022-11-04T07:21:33;5.65;;;1.67;;
24451;SDS011;13350;50.984;5.822;2022-11-04T07:24:00;2.97;;;1.40;;
24451;SDS011;13350;50.984;5.822;2022-11-04T07:26:27;4.65;;;1.20;;
24451;SDS011;13350;50.984;5.822;2022-11-04T07:28:54;4.47;;;1.50;;
24451;SDS011;13350;50.984;5.822;2022-11-04T07:31:22;4.47;;;1.50;;
24451;SDS011;13350;50.984;5.822;2022-11-04T07:33:49;6.75;;;1.63;;
24451;SDS011;13350;50.984;5.822;2022-11-04T07:36:16;5.93;;;1.20;;
24451;SDS011;13350;50.984;5.822;2022-11-04T07:38:45;5.43;;;1.38;;
24451;SDS011;13350;50.984;5.822;2022-11-04T07:41:12;5.85;;;1.45;;
24451;SDS011;13350;50.984;5.822;2022-11-04T07:43:40;6.35;;;1.27;;
24451;SDS011;13350;50.984;5.822;2022-11-04T07:46:08;5.30;;;1.33;;
24451;SDS011;13350;50.984;5.822;2022-11-04T07:48:38;5.80;;;2.15;;
24451;SDS011;13350;50.984;5.822;2022-11-04T07:51:06;5.55;;;1.10;;
24451;SDS011;13350;50.984;5.822;2022-11-04T07:53:36;4.35;;;1.42;;
24451;SDS011;13350;50.984;5.822;2022-11-04T07:56:06;6.07;;;1.30;;
24451;SDS011;13350;50.984;5.822;2022-11-04T07:58:36;5.07;;;1.25;;
24451;SDS011;13350;50.984;5.822;2022-11-04T08:01:06;5.22;;;1.45;;
24451;SDS011;13350;50.984;5.822;2022-11-04T08:03:34;4.50;;;1.27;;
24451;SDS011;13350;50.984;5.822;2022-11-04T08:06:02;6.47;;;1.83;;
24451;SDS011;13350;50.984;5.822;2022-11-04T08:08:31;5.00;;;1.33;;
24451;SDS011;13350;50.984;5.822;2022-11-04T08:11:00;5.55;;;1.33;;
24451;SDS011;13350;50.984;5.822;2022-11-04T08:13:32;4.00;;;1.35;;
24451;SDS011;13350;50.984;5.822;2022-11-04T08:16:01;7.30;;;1.70;;
24451;SDS011;13350;50.984;5.822;2022-11-04T08:18:29;5.43;;;1.15;;
24451;SDS011;13350;50.984;5.822;2022-11-04T08:20:56;7.28;;;1.67;;
24451;SDS011;13350;50.984;5.822;2022-11-04T08:23:24;2.38;;;1.30;;
24451;SDS011;13350;50.984;5.822;2022-11-04T08:25:51;4.90;;;1.20;;
24451;SDS011;13350;50.984;5.822;2022-11-04T08:28:19;6.70;;;2.10;;
24451;SDS011;13350;50.984;5.822;2022-11-04T08:30:54;4.95;;;1.60;;
24451;SDS011;13350;50.984;5.822;2022-11-04T08:33:22;4.78;;;1.40;;
24451;SDS011;13350;50.984;5.822;2022-11-04T08:35:51;4.95;;;1.33;;
24451;SDS011;13350;50.984;5.822;2022-11-04T08:38:18;6.00;;;1.80;;
24451;SDS011;13350;50.984;5.822;2022-11-04T08:40:46;4.22;;;1.23;;
24451;SDS011;13350;50.984;5.822;2022-11-04T08:43:13;5.88;;;1.35;;
24451;SDS011;13350;50.984;5.822;2022-11-04T08:45:41;4.85;;;1.27;;
24451;SDS011;13350;50.984;5.822;2022-11-04T08:48:11;3.38;;;1.40;;
24451;SDS011;13350;50.984;5.822;2022-11-04T08:50:41;4.38;;;1.30;;
24451;SDS011;13350;50.984;5.822;2022-11-04T08:53:08;3.78;;;1.33;;
24451;SDS011;13350;50.984;5.822;2022-11-04T08:55:37;4.60;;;1.42;;
24451;SDS011;13350;50.984;5.822;2022-11-04T08:58:04;4.50;;;1.48;;
24451;SDS011;13350;50.984;5.822;2022-11-04T09:00:32;4.25;;;1.20;;
24451;SDS011;13350;50.984;5.822;2022-11-04T09:02:59;6.38;;;1.20;;
24451;SDS011;13350;50.984;5.822;2022-11-04T09:05:28;6.68;;;1.58;;
24451;SDS011;13350;50.984;5.822;2022-11-04T09:07:55;3.83;;;1.42;;
24451;SDS011;13350;50.984;5.822;2022-11-04T09:10:22;3.20;;;1.25;;
24451;SDS011;13350;50.984;5.822;2022-11-04T09:12:50;5.18;;;1.30;;
24451;SDS011;13350;50.984;5.822;2022-11-04T09:15:17;4.53;;;1.13;;
24451;SDS011;13350;50.984;5.822;2022-11-04T09:17:44;6.20;;;1.30;;
24451;SDS011;13350;50.984;5.822;2022-11-04T09:20:12;3.72;;;1.40;;
24451;SDS011;13350;50.984;5.822;2022-11-04T09:22:40;4.70;;;1.40;;
24451;SDS011;13350;50.984;5.822;2022-11-04T09:25:08;3.38;;;1.33;;
24451;SDS011;13350;50.984;5.822;2022-11-04T09:27:35;5.18;;;1.15;;
24451;SDS011;13350;50.984;5.822;2022-11-04T09:30:02;4.13;;;1.08;;
24451;SDS011;13350;50.984;5.822;2022-11-04T09:32:30;3.50;;;1.27;;
24451;SDS011;13350;50.984;5.822;2022-11-04T09:34:57;3.95;;;1.10;;
24451;SDS011;13350;50.984;5.822;2022-11-04T09:37:24;5.35;;;1.20;;
24451;SDS011;13350;50.984;5.822;2022-11-04T09:39:53;3.80;;;1.30;;
24451;SDS011;13350;50.984;5.822;2022-11-04T09:45:14;3.45;;;0.88;;
24451;SDS011;13350;50.984;5.822;2022-11-04T09:47:44;5.55;;;1.73;;
24451;SDS011;13350;50.984;5.822;2022-11-04T09:50:15;3.67;;;1.13;;
24451;SDS011;13350;50.984;5.822;2022-11-04T09:52:50;4.43;;;1.30;;
24451;SDS011;13350;50.984;5.822;2022-11-04T09:55:25;4.43;;;1.30;;
24451;SDS011;13350;50.984;5.822;2022-11-04T09:57:57;4.05;;;1.20;;
24451;SDS011;13350;50.984;5.822;2022-11-04T10:00:24;3.30;;;1.02;;
24451;SDS011;13350;50.984;5.822;2022-11-04T10:02:56;5.43;;;1.40;;
24451;SDS011;13350;50.984;5.822;2022-11-04T10:05:39;3.72;;;1.10;;
24451;SDS011;13350;50.984;5.822;2022-11-04T10:08:25;3.25;;;1.35;;
24451;SDS011;13350;50.984;5.822;2022-11-04T10:11:16;2.60;;;1.05;;
24451;SDS011;13350;50.984;5.822;2022-11-04T10:13:52;2.28;;;1.00;;
24451;SDS011;13350;50.984;5.822;2022-11-04T10:16:38;5.38;;;1.13;;
24451;SDS011;13350;50.984;5.822;2022-11-04T10:19:25;3.42;;;0.90;;
24451;SDS011;13350;50.984;5.822;2022-11-04T10:22:01;4.38;;;1.00;;
24451;SDS011;13350;50.984;5.822;2022-11-04T10:24:39;2.72;;;0.93;;
24451;SDS011;13350;50.984;5.822;2022-11-04T10:27:13;4.05;;;1.08;;
24451;SDS011;13350;50.984;5.822;2022-11-04T10:29:42;3.72;;;1.40;;
24451;SDS011;13350;50.984;5.822;2022-11-04T10:32:13;3.67;;;1.25;;
24451;SDS011;13350;50.984;5.822;2022-11-04T10:34:45;5.90;;;1.35;;
24451;SDS011;13350;50.984;5.822;2022-11-04T10:37:16;3.25;;;1.08;;
24451;SDS011;13350;50.984;5.822;2022-11-04T10:39:44;3.08;;;1.00;;
24451;SDS011;13350;50.984;5.822;2022-11-04T10:42:14;4.65;;;2.00;;
24451;SDS011;13350;50.984;5.822;2022-11-04T10:44:45;6.75;;;1.50;;
24451;SDS011;13350;50.984;5.822;2022-11-04T10:47:17;5.07;;;1.73;;
24451;SDS011;13350;50.984;5.822;2022-11-04T10:49:57;2.78;;;1.30;;
24451;SDS011;13350;50.984;5.822;2022-11-04T10:52:39;5.90;;;1.45;;
24451;SDS011;13350;50.984;5.822;2022-11-04T10:55:10;4.60;;;1.40;;
24451;SDS011;13350;50.984;5.822;2022-11-04T10:57:49;4.07;;;1.40;;
24451;SDS011;13350;50.984;5.822;2022-11-04T11:03:21;6.43;;;1.50;;
24451;SDS011;13350;50.984;5.822;2022-11-04T11:05:51;3.47;;;1.30;;
24451;SDS011;13350;50.984;5.822;2022-11-04T11:08:28;3.85;;;1.30;;
24451;SDS011;13350;50.984;5.822;2022-11-04T11:10:57;3.83;;;1.38;;
24451;SDS011;13350;50.984;5.822;2022-11-04T11:13:27;5.38;;;1.63;;
24451;SDS011;13350;50.984;5.822;2022-11-04T11:16:04;3.03;;;1.15;;
24451;SDS011;13350;50.984;5.822;2022-11-04T11:18:37;3.53;;;1.42;;
24451;SDS011;13350;50.984;5.822;2022-11-04T11:21:10;3.15;;;1.00;;
24451;SDS011;13350;50.984;5.822;2022-11-04T11:23:41;5.10;;;1.50;;
24451;SDS011;13350;50.984;5.822;2022-11-04T11:26:12;6.43;;;1.70;;
24451;SDS011;13350;50.984;5.822;2022-11-04T11:28:47;5.20;;;1.73;;
24451;SDS011;13350;50.984;5.822;2022-11-04T11:33:49;3.70;;;1.30;;
24451;SDS011;13350;50.984;5.822;2022-11-04T11:36:20;2.25;;;1.10;;
24451;SDS011;13350;50.984;5.822;2022-11-04T11:38:57;4.93;;;1.55;;
24451;SDS011;13350;50.984;5.822;2022-11-04T11:41:28;5.20;;;1.30;;
24451;SDS011;13350;50.984;5.822;2022-11-04T11:43:59;3.35;;;1.77;;
24451;SDS011;13350;50.984;5.822;2022-11-04T11:46:30;3.05;;;1.00;;
24451;SDS011;13350;50.984;5.822;2022-11-04T11:48:59;5.13;;;1.13;;
24451;SDS011;13350;50.984;5.822;2022-11-04T11:51:28;3.33;;;1.05;;
24451;SDS011;13350;50.984;5.822;2022-11-04T11:54:00;5.60;;;1.08;;
24451;SDS011;13350;50.984;5.822;2022-11-04T11:56:44;3.38;;;1.45;;
24451;SDS011;13350;50.984;5.822;2022-11-04T11:59:22;3.53;;;1.10;;
24451;SDS011;13350;50.984;5.822;2022-11-04T12:01:58;2.33;;;0.90;;
24451;SDS011;13350;50.984;5.822;2022-11-04T12:04:35;2.92;;;1.15;;
24451;SDS011;13350;50.984;5.822;2022-11-04T12:07:06;1.95;;;0.75;;
24451;SDS011;13350;50.984;5.822;2022-11-04T12:09:41;2.85;;;0.95;;
24451;SDS011;13350;50.984;5.822;2022-11-04T12:12:18;1.88;;;0.90;;
24451;SDS011;13350;50.984;5.822;2022-11-04T12:15:04;4.55;;;1.20;;
24451;SDS011;13350;50.984;5.822;2022-11-04T12:17:53;6.85;;;1.10;;
24451;SDS011;13350;50.984;5.822;2022-11-04T12:20:34;4.00;;;1.25;;
24451;SDS011;13350;50.984;5.822;2022-11-04T12:23:12;3.22;;;1.10;;
24451;SDS011;13350;50.984;5.822;2022-11-04T12:25:47;3.60;;;1.65;;
24451;SDS011;13350;50.984;5.822;2022-11-04T12:28:26;3.78;;;1.40;;
24451;SDS011;13350;50.984;5.822;2022-11-04T12:31:06;4.55;;;1.52;;
24451;SDS011;13350;50.984;5.822;2022-11-04T12:33:43;2.70;;;1.27;;
24451;SDS011;13350;50.984;5.822;2022-11-04T12:36:20;3.08;;;1.10;;
24451;SDS011;13350;50.984;5.822;2022-11-04T12:39:09;2.38;;;1.33;;
24451;SDS011;13350;50.984;5.822;2022-11-04T12:41:47;4.50;;;1.63;;
24451;SDS011;13350;50.984;5.822;2022-11-04T12:44:25;3.63;;;1.30;;
24451;SDS011;13350;50.984;5.822;2022-11-04T12:47:02;2.58;;;1.40;;
24451;SDS011;13350;50.984;5.822;2022-11-04T12:52:41;2.22;;;1.50;;
24451;SDS011;13350;50.984;5.822;2022-11-04T12:55:27;3.50;;;1.50;;
24451;SDS011;13350;50.984;5.822;2022-11-04T12:58:06;4.35;;;1.52;;
24451;SDS011;13350;50.984;5.822;2022-11-04T13:00:43;3.72;;;1.80;;
24451;SDS011;13350;50.984;5.822;2022-11-04T13:03:15;3.65;;;1.48;;
24451;SDS011;13350;50.984;5.822;2022-11-04T13:05:46;3.65;;;2.03;;
24451;SDS011;13350;50.984;5.822;2022-11-04T13:08:20;5.75;;;1.70;;
24451;SDS011;13350;50.984;5.822;2022-11-04T13:10:52;2.42;;;1.08;;
24451;SDS011;13350;50.984;5.822;2022-11-04T13:13:22;3.63;;;1.30;;
24451;SDS011;13350;50.984;5.822;2022-11-04T13:15:54;2.40;;;1.20;;
24451;SDS011;13350;50.984;5.822;2022-11-04T13:18:26;3.55;;;1.10;;
24451;SDS011;13350;50.984;5.822;2022-11-04T13:23:31;4.93;;;1.45;;
24451;SDS011;13350;50.984;5.822;2022-11-04T13:26:05;5.28;;;1.27;;
24451;SDS011;13350;50.984;5.822;2022-11-04T13:28:36;3.20;;;1.50;;
24451;SDS011;13350;50.984;5.822;2022-11-04T13:31:07;3.15;;;1.58;;
24451;SDS011;13350;50.984;5.822;2022-11-04T13:33:45;4.63;;;1.58;;
24451;SDS011;13350;50.984;5.822;2022-11-04T13:36:29;4.93;;;1.50;;
24451;SDS011;13350;50.984;5.822;2022-11-04T13:39:04;4.43;;;1.45;;
24451;SDS011;13350;50.984;5.822;2022-11-04T13:41:39;2.95;;;1.58;;
24451;SDS011;13350;50.984;5.822;2022-11-04T13:44:33;3.10;;;1.52;;
24451;SDS011;13350;50.984;5.822;2022-11-04T13:47:04;4.00;;;1.20;;
24451;SDS011;13350;50.984;5.822;2022-11-04T13:49:45;3.35;;;1.30;;
24451;SDS011;13350;50.984;5.822;2022-11-04T13:52:15;4.00;;;1.33;;
24451;SDS011;13350;50.984;5.822;2022-11-04T13:54:43;1.77;;;1.00;;
24451;SDS011;13350;50.984;5.822;2022-11-04T13:57:13;3.78;;;1.20;;
24451;SDS011;13350;50.984;5.822;2022-11-04T14:00:05;3.53;;;0.95;;
24451;SDS011;13350;50.984;5.822;2022-11-04T14:02:44;3.22;;;1.13;;
24451;SDS011;13350;50.984;5.822;2022-11-04T14:08:22;5.15;;;1.15;;
24451;SDS011;13350;50.984;5.822;2022-11-04T14:11:04;6.85;;;1.92;;
24451;SDS011;13350;50.984;5.822;2022-11-04T14:16:38;2.40;;;1.20;;
24451;SDS011;13350;50.984;5.822;2022-11-04T14:22:21;5.07;;;1.75;;
24451;SDS011;13350;50.984;5.822;2022-11-04T14:24:59;4.18;;;1.58;;
24451;SDS011;13350;50.984;5.822;2022-11-04T14:27:33;5.88;;;1.60;;
24451;SDS011;13350;50.984;5.822;2022-11-04T14:30:05;2.95;;;1.30;;
24451;SDS011;13350;50.984;5.822;2022-11-04T14:32:50;4.65;;;1.63;;
24451;SDS011;13350;50.984;5.822;2022-11-04T14:35:22;4.90;;;1.50;;
24451;SDS011;13350;50.984;5.822;2022-11-04T14:37:50;4.78;;;1.60;;
24451;SDS011;13350;50.984;5.822;2022-11-04T14:40:24;5.72;;;2.20;;
24451;SDS011;13350;50.984;5.822;2022-11-04T14:42:53;6.47;;;1.85;;
24451;SDS011;13350;50.984;5.822;2022-11-04T14:45:21;3.28;;;1.60;;
24451;SDS011;13350;50.984;5.822;2022-11-04T14:47:51;4.57;;;1.80;;
24451;SDS011;13350;50.984;5.822;2022-11-04T14:50:22;7.03;;;1.70;;
24451;SDS011;13350;50.984;5.822;2022-11-04T14:52:52;5.22;;;2.25;;
24451;SDS011;13350;50.984;5.822;2022-11-04T14:55:24;3.75;;;1.70;;
24451;SDS011;13350;50.984;5.822;2022-11-04T14:57:54;3.08;;;1.63;;
24451;SDS011;13350;50.984;5.822;2022-11-04T15:00:30;6.15;;;2.45;;
24451;SDS011;13350;50.984;5.822;2022-11-04T15:03:04;4.63;;;1.75;;
24451;SDS011;13350;50.984;5.822;2022-11-04T15:05:37;7.00;;;2.17;;
24451;SDS011;13350;50.984;5.822;2022-11-04T15:10:59;3.65;;;1.60;;
24451;SDS011;13350;50.984;5.822;2022-11-04T15:13:31;3.60;;;1.88;;
24451;SDS011;13350;50.984;5.822;2022-11-04T15:15:59;4.03;;;1.70;;
24451;SDS011;13350;50.984;5.822;2022-11-04T15:18:33;4.05;;;2.30;;
24451;SDS011;13350;50.984;5.822;2022-11-04T15:21:08;6.03;;;2.00;;
24451;SDS011;13350;50.984;5.822;2022-11-04T15:23:36;6.22;;;2.58;;
24451;SDS011;13350;50.984;5.822;2022-11-04T15:26:13;5.20;;;3.20;;
24451;SDS011;13350;50.984;5.822;2022-11-04T15:28:49;5.22;;;3.28;;
24451;SDS011;13350;50.984;5.822;2022-11-04T15:31:18;5.30;;;3.38;;
24451;SDS011;13350;50.984;5.822;2022-11-04T15:33:47;6.80;;;3.40;;
24451;SDS011;13350;50.984;5.822;2022-11-04T15:36:16;6.35;;;3.00;;
24451;SDS011;13350;50.984;5.822;2022-11-04T15:38:48;5.05;;;2.85;;
24451;SDS011;13350;50.984;5.822;2022-11-04T15:41:19;4.72;;;3.30;;
24451;SDS011;13350;50.984;5.822;2022-11-04T15:44:09;4.63;;;3.17;;
24451;SDS011;13350;50.984;5.822;2022-11-04T15:46:46;8.48;;;3.30;;
24451;SDS011;13350;50.984;5.822;2022-11-04T15:49:20;8.18;;;3.30;;
24451;SDS011;13350;50.984;5.822;2022-11-04T15:51:50;6.78;;;3.67;;